Time;durP1;ratioP1;P1;durP2;ratioP2;P2;SDS_P1;SDS_P2;PMS_P1;PMS_P2;Temp;Humidity;BMP_temperature;BMP_pressure;BME280_temperature;BME280_humidity;BME280_pressure;Samples;Min_cycle;Max_cycle;Signal;HPM_P1;HPM_P2
2022/08/29 00:01:24;;;;;;;;;;;;;;;22.45;53.11;101628.97;5254955;27;19928;-68
2022/08/29 00:03:53;;;;;;;;;;;;;;;22.38;53.33;101629.41;5297320;27;19929;-68
2022/08/29 00:06:18;;;;;;;;;;;;;;;22.38;53.40;101633.06;5296297;27;19921;-68
2022/08/29 00:08:43;;;;;;;;;;;;;;;22.41;53.17;101634.94;5275046;27;19927;-69
2022/08/29 00:16:47;;;;;;;;;;;;;;;22.41;53.36;101637.00;5250108;27;20185;-68
2022/08/29 00:22:15;;;;;;;;;;;;;;;22.40;53.49;101641.19;5276115;27;19928;-68
2022/08/29 00:24:40;;;;;;;;;;;;;;;22.38;53.29;101640.88;5296696;27;19913;-68
2022/08/29 00:46:50;;;;;;;;;;;;;;;22.43;53.68;101643.06;5247278;27;20257;-68
2022/08/29 00:55:34;;;;;;;;;;;;;;;22.37;53.88;101640.09;5231842;27;19941;-68
2022/08/29 01:43:03;;;;;;;;;;;;;;;22.07;54.58;101649.25;5244278;27;19990;-64
2022/08/29 01:51:34;;;;;;;;;;;;;;;21.63;56.69;101655.78;5248479;27;19945;-67
2022/08/29 01:54:00;;;;;;;;;;;;;;;21.70;56.96;101666.84;5277366;27;19918;-67
2022/08/29 01:56:28;;;;;;;;;;;;;;;21.68;56.87;101657.16;5275519;27;19934;-67
2022/08/29 01:58:55;;;;;;;;;;;;;;;21.68;56.48;101663.69;5275255;27;19918;-67
2022/08/29 02:01:23;;;;;;;;;;;;;;;21.63;56.38;101652.91;5275367;27;19925;-67
2022/08/29 02:03:49;;;;;;;;;;;;;;;21.63;56.42;101660.72;5275994;27;19929;-67
2022/08/29 02:06:16;;;;;;;;;;;;;;;21.71;56.60;101659.03;5273991;27;20065;-68
2022/08/29 02:08:43;;;;;;;;;;;;;;;21.68;57.68;101665.75;5277185;27;19921;-68
2022/08/29 02:11:12;;;;;;;;;;;;;;;21.61;58.40;101669.03;5298718;27;19921;-68
2022/08/29 02:13:46;;;;;;;;;;;;;;;21.59;58.77;101666.66;5297699;27;19914;-68
2022/08/29 02:16:16;;;;;;;;;;;;;;;21.44;58.76;101657.25;5298461;27;19937;-68
2022/08/29 02:18:50;;;;;;;;;;;;;;;21.41;59.88;101652.50;5299346;27;19917;-68
2022/08/29 02:21:22;;;;;;;;;;;;;;;21.41;59.97;101651.69;5297270;27;19940;-68
2022/08/29 02:23:49;;;;;;;;;;;;;;;21.41;60.06;101658.22;5297935;27;19917;-68
2022/08/29 02:26:15;;;;;;;;;;;;;;;21.49;59.32;101653.72;5277682;27;19933;-68
2022/08/29 02:28:41;;;;;;;;;;;;;;;21.53;60.23;101657.16;5298396;27;19913;-68
2022/08/29 02:33:59;;;;;;;;;;;;;;;21.27;60.55;101653.25;5287364;27;19991;-68
2022/08/29 03:39:11;;;;;;;;;;;;;;;21.94;58.47;101666.00;5252069;27;19932;-68
2022/08/29 03:41:40;;;;;;;;;;;;;;;21.96;58.31;101669.16;5297180;27;19909;-68
2022/08/29 03:44:08;;;;;;;;;;;;;;;21.94;58.61;101663.13;5298582;27;19913;-68
2022/08/29 03:46:36;;;;;;;;;;;;;;;21.98;58.75;101666.56;5297053;27;19965;-68
2022/08/29 04:08:37;;;;;;;;;;;;;;;21.93;59.52;101665.19;5272370;27;19929;-68
2022/08/29 04:19:30;;;;;;;;;;;;;;;21.78;60.60;101664.41;5293031;27;19944;-68
2022/08/29 04:21:56;;;;;;;;;;;;;;;21.69;60.77;101659.53;5296683;27;19920;-68
2022/08/29 04:24:22;;;;;;;;;;;;;;;21.68;60.76;101660.81;5297970;27;19936;-68
2022/08/29 04:26:47;;;;;;;;;;;;;;;21.57;60.91;101657.75;5297558;27;19920;-68
2022/08/29 04:29:13;;;;;;;;;;;;;;;21.59;60.47;101660.13;5295836;27;19944;-68
2022/08/29 04:31:40;;;;;;;;;;;;;;;21.58;60.80;101665.06;5298006;27;19939;-68
2022/08/29 04:34:07;;;;;;;;;;;;;;;21.64;60.59;101671.66;5276838;27;19920;-68
2022/08/29 04:36:34;;;;;;;;;;;;;;;21.66;60.42;101669.12;5298274;27;19924;-68
2022/08/29 04:38:59;;;;;;;;;;;;;;;21.56;60.54;101664.78;5297642;27;19946;-68
2022/08/29 04:41:24;;;;;;;;;;;;;;;21.61;60.28;101675.56;5297415;27;20062;-68
2022/08/29 04:43:50;;;;;;;;;;;;;;;21.59;59.88;101674.44;5297312;27;19920;-68
2022/08/29 04:54:42;;;;;;;;;;;;;;;21.45;60.21;101672.38;5275954;27;19920;-67
2022/08/29 04:57:08;;;;;;;;;;;;;;;21.35;60.22;101680.25;5275490;27;19973;-67
2022/08/29 04:59:33;;;;;;;;;;;;;;;21.36;60.63;101684.69;5276098;27;19917;-67
2022/08/29 05:01:59;;;;;;;;;;;;;;;21.30;60.59;101680.91;5276228;27;19914;-67
2022/08/29 05:04:24;;;;;;;;;;;;;;;21.36;60.38;101687.53;5276554;27;19921;-67
2022/08/29 05:06:50;;;;;;;;;;;;;;;21.32;60.52;101686.94;5273655;27;19948;-68
2022/08/29 05:20:31;;;;;;;;;;;;;;;20.86;60.59;101694.25;5291558;27;20063;-69
2022/08/29 05:45:29;;;;;;;;;;;;;;;20.74;61.11;101708.81;5258732;27;19924;-68
2022/08/29 05:54:04;;;;;;;;;;;;;;;20.75;60.57;101719.78;5245360;27;20141;31
2022/08/29 05:56:29;;;;;;;;;;;;;;;20.74;60.95;101712.47;5298965;27;19925;-67
2022/08/29 05:58:55;;;;;;;;;;;;;;;20.73;60.92;101727.25;5298974;27;19928;-67
2022/08/29 06:01:22;;;;;;;;;;;;;;;20.76;60.69;101715.63;5299311;27;19913;-67
2022/08/29 06:03:48;;;;;;;;;;;;;;;20.86;60.56;101717.16;5299808;27;19917;-67
2022/08/29 06:06:13;;;;;;;;;;;;;;;20.75;60.03;101714.06;5298980;27;19930;-67
2022/08/29 07:19:47;;;;;;;;;;;;;;;22.94;51.90;101723.62;5230009;27;21102;31
2022/08/29 07:37:09;;;;;;;;;;;;;;;23.24;49.85;101742.34;5275052;27;19948;-68
2022/08/29 07:39:34;;;;;;;;;;;;;;;23.29;49.49;101750.25;5297343;27;19945;-68
2022/08/29 07:47:38;;;;;;;;;;;;;;;23.57;48.84;101754.25;5258039;27;19927;-67
2022/08/29 07:50:05;;;;;;;;;;;;;;;23.40;49.10;101744.63;5296154;27;19926;-68
2022/08/29 08:37:35;;;;;;;;;;;;;;;23.24;48.50;101748.91;5293318;27;19980;-68
2022/08/29 08:40:01;;;;;;;;;;;;;;;23.45;47.80;101749.69;5295437;27;19925;-68
2022/08/29 08:42:41;;;;;;;;;;;;;;;23.42;47.44;101742.06;5294118;27;19913;-68
2022/08/29 08:47:57;;;;;;;;;;;;;;;24.04;45.77;101748.00;3954025;32;16326614;-69
2022/08/29 08:50:27;;;;;;;;;;;;;;;24.04;45.77;101748.00;4447049;32;20098;-69
2022/08/29 08:52:57;;;;;;;;;;;;;;;23.48;46.54;101763.03;4869861;26;19974;-68
2022/08/29 08:55:27;;;;;;;;;;;;;;;23.38;46.78;101756.63;4418602;32;19962;-69
2022/08/29 08:57:58;;;;;;;;;;;;;;;23.48;46.48;101763.03;4423359;32;19954;-69
2022/08/29 09:00:24;;;;;;;;;;;;;;;23.08;47.19;101763.78;4421834;32;20331;-69
2022/08/29 09:05:49;;;;;;;;;;;;;;;23.68;46.60;101767.97;3972141;32;15722629;-69
2022/08/29 09:11:02;;;;;;;;;;;;;;;24.00;45.82;101775.41;3972386;32;15722608;-69
2022/08/29 09:16:18;;;;;;;;;;;;;;;24.45;44.29;101769.56;3972231;32;15723681;-67
2022/08/29 09:18:43;;;;;;;;;;;;;;;24.45;44.29;101769.56;4451349;32;19948;-69
2022/08/29 09:21:11;;;;;;;;;;;;;;;24.31;44.23;101776.25;4452953;32;20110;-69
2022/08/29 09:23:42;;;;;;;;;;;;;;;24.07;44.66;101764.25;4451157;32;20018;-69
2022/08/29 09:26:07;;;;;;;;;;;;;;;24.06;44.83;101771.28;4811125;26;20016;-68
2022/08/29 09:28:33;;;;;;;;;;;;;;;24.01;45.23;101768.34;4438997;32;20050;-69
2022/08/29 09:31:19;;;;;;;;;;;;;;;23.90;45.48;101757.50;4440411;32;20013;-69
2022/08/29 09:33:47;;;;;;;;;;;;;;;23.75;45.76;101771.19;4437410;32;19962;-69
2022/08/29 09:36:15;;;;;;;;;;;;;;;23.75;46.11;101771.19;4436568;32;19940;-69
2022/08/29 09:38:41;;;;;;;;;;;;;;;24.07;45.44;101769.19;4436842;32;19939;-69
2022/08/29 09:41:07;;;;;;;;;;;;;;;24.13;45.64;101770.03;4433495;32;20022;-69
2022/08/29 09:43:45;;;;;;;;;;;;;;;24.45;44.94;101772.41;4436259;32;20207;-68
2022/08/29 09:46:15;;;;;;;;;;;;;;;24.76;44.44;101774.53;4435092;32;19934;-69
2022/08/29 09:48:43;;;;;;;;;;;;;;;25.16;43.30;101775.03;4439041;32;19970;-69
2022/08/29 09:51:14;;;;;;;;;;;;;;;25.79;41.91;101781.38;4436120;32;20004;-69
2022/08/29 09:53:40;;;;;;;;;;;;;;;26.58;40.36;101775.19;4437017;32;19985;-69
2022/08/29 09:56:07;;;;;;;;;;;;;;;26.86;39.99;101781.78;4439802;32;20019;-69
2022/08/29 09:58:34;;;;;;;;;;;;;;;26.78;39.82;101772.06;4437258;32;20005;-69
2022/08/29 10:01:01;;;;;;;;;;;;;;;27.02;39.25;101783.84;4437037;32;20020;-69
2022/08/29 10:03:31;;;;;;;;;;;;;;;26.89;39.49;101778.63;4436367;32;19989;-69
2022/08/29 10:06:07;;;;;;;;;;;;;;;26.79;39.44;101774.41;4436922;32;20215;-69
2022/08/29 10:08:34;;;;;;;;;;;;;;;26.54;39.79;101777.56;4438611;32;19970;-69
2022/08/29 10:11:03;;;;;;;;;;;;;;;26.27;40.35;101769.69;4437861;32;19985;-69
2022/08/29 10:13:33;;;;;;;;;;;;;;;25.94;41.29;101770.41;4435308;32;19973;-69
2022/08/29 10:16:20;;;;;;;;;;;;;;;25.64;41.85;101771.38;4438001;32;20081;-69
2022/08/29 10:18:49;;;;;;;;;;;;;;;25.22;42.53;101780.84;4443198;32;19944;-69
2022/08/29 10:24:17;;;;;;;;;;;;;;;25.05;43.87;101775.00;3971856;32;15723553;-68
2022/08/29 10:27:03;;;;;;;;;;;;;;;25.05;43.87;101775.00;4450453;32;20020;-68
2022/08/29 10:32:40;;;;;;;;;;;;;;;24.95;43.67;101781.47;3992266;31;15717773;-69
2022/08/29 10:35:11;;;;;;;;;;;;;;;24.95;43.67;101781.47;4478302;32;20045;-67
2022/08/29 10:37:46;;;;;;;;;;;;;;;24.60;43.97;101773.06;4679560;26;20125;-67
2022/08/29 10:40:17;;;;;;;;;;;;;;;24.63;43.62;101777.00;4439210;32;19933;-68
2022/08/29 10:42:43;;;;;;;;;;;;;;;24.37;44.25;101782.84;4436346;32;19962;-68
2022/08/29 10:53:31;;;;;;;;;;;;;;;23.87;46.61;101793.00;3972069;32;15723597;-69
2022/08/29 10:55:59;;;;;;;;;;;;;;;23.87;46.61;101793.00;4451913;32;20078;-69
2022/08/29 10:58:44;;;;;;;;;;;;;;;23.53;47.24;101791.84;4450291;32;19974;-69
2022/08/29 11:01:13;;;;;;;;;;;;;;;23.47;47.54;101785.22;4453743;32;19988;-69
2022/08/29 11:06:27;;;;;;;;;;;;;;;24.33;46.14;101784.38;3972594;32;15722701;-67
2022/08/29 11:09:00;;;;;;;;;;;;;;;24.33;46.14;101784.38;4449915;32;19977;-67
2022/08/29 11:11:28;;;;;;;;;;;;;;;24.25;46.04;101780.34;4449090;32;20202;-67
2022/08/29 11:13:58;;;;;;;;;;;;;;;24.21;46.98;101774.81;4448074;32;19983;-69
2022/08/29 11:19:12;;;;;;;;;;;;;;;23.75;51.76;101784.78;3973922;32;15723657;-68
2022/08/29 11:21:42;;;;;;;;;;;;;;;23.75;51.76;101784.78;4450067;32;19944;-68
2022/08/29 11:24:09;;;;;;;;;;;;;;;22.90;54.99;101783.34;4450321;32;20139;-68
2022/08/29 11:29:39;;;;;;;;;;;;;;;23.46;53.95;101782.84;3971731;32;15721082;-68
2022/08/29 11:32:25;;;;;;;;;;;;;;;23.46;53.95;101782.84;4449263;32;19981;-69
2022/08/29 11:35:10;;;;;;;;;;;;;;;23.75;52.59;101776.16;4448224;32;19973;-69
2022/08/29 11:37:55;;;;;;;;;;;;;;;24.97;49.59;101776.78;4450455;32;19973;-69
2022/08/29 11:53:32;;;;;;;;;;;;;;;28.78;37.18;101776.31;3950625;32;15725711;-69
2022/08/29 11:58:58;;;;;;;;;;;;;;;27.11;40.67;101783.56;3971671;32;15723587;-68
2022/08/29 12:04:04;;;;;;;;;;;;;;;26.08;45.52;101780.16;3972557;32;15724531;-69
2022/08/29 12:06:34;;;;;;;;;;;;;;;25.33;46.27;101775.16;4448993;32;20135;-69
2022/08/29 12:09:04;;;;;;;;;;;;;;;24.83;47.11;101777.75;4451898;32;20184;-69
2022/08/29 12:11:50;;;;;;;;;;;;;;;24.74;47.28;101772.19;4449305;32;20955;-69
2022/08/29 12:14:27;;;;;;;;;;;;;;;24.70;47.95;101773.72;4451177;32;19980;-69
2022/08/29 12:16:53;;;;;;;;;;;;;;;24.92;47.93;101789.06;4447423;32;19933;-69
2022/08/29 12:19:39;;;;;;;;;;;;;;;25.06;46.87;101781.53;4449416;32;20022;-69
2022/08/29 12:22:05;;;;;;;;;;;;;;;25.17;46.34;101776.63;4450039;32;19938;-69
2022/08/29 12:24:40;;;;;;;;;;;;;;;25.69;44.91;101780.03;4446046;32;20517;-69
2022/08/29 12:27:20;;;;;;;;;;;;;;;26.08;43.38;101780.16;4448680;32;19944;-69
2022/08/29 12:29:46;;;;;;;;;;;;;;;26.75;42.19;101776.03;4448453;32;19962;-69
2022/08/29 12:45:21;;;;;;;;;;;;;;;31.16;33.40;101774.47;4821596;26;15715303;-69
2022/08/29 12:47:49;;;;;;;;;;;;;;;31.16;33.40;101774.47;5411442;26;20007;-68
2022/08/29 12:50:17;;;;;;;;;;;;;;;30.64;32.72;101766.44;5361816;26;19941;-67
2022/08/29 12:52:56;;;;;;;;;;;;;;;30.14;33.12;101766.47;5411371;26;19932;-68
2022/08/29 12:55:23;;;;;;;;;;;;;;;29.42;34.54;101763.75;5412552;26;19915;-68
2022/08/29 12:57:50;;;;;;;;;;;;;;;29.42;34.45;101757.94;5410854;26;20010;-68
2022/08/29 13:00:19;;;;;;;;;;;;;;;28.94;35.46;101758.75;5411189;26;19967;-68
2022/08/29 13:03:05;;;;;;;;;;;;;;;27.87;37.61;101754.88;5411827;26;19975;-68
2022/08/29 13:05:31;;;;;;;;;;;;;;;27.68;38.13;101759.72;5410529;26;19923;-68
2022/08/29 13:07:59;;;;;;;;;;;;;;;26.99;41.67;101761.78;5410035;26;19915;-68
2022/08/29 13:10:25;;;;;;;;;;;;;;;26.23;44.37;101752.63;5410596;26;20110;-68
2022/08/29 13:12:51;;;;;;;;;;;;;;;26.07;43.63;101750.50;5411769;26;19927;-68
2022/08/29 13:15:20;;;;;;;;;;;;;;;25.72;44.18;101753.03;5411483;26;19998;-68
2022/08/29 13:17:46;;;;;;;;;;;;;;;25.67;44.84;101745.16;5409939;26;19976;-68
2022/08/29 13:20:32;;;;;;;;;;;;;;;25.88;44.21;101751.50;5412150;26;19919;-68
2022/08/29 13:25:48;;;;;;;;;;;;;;;27.76;39.78;101747.03;3972343;32;15725609;-69
2022/08/29 13:28:25;;;;;;;;;;;;;;;27.76;39.78;101747.03;4448492;32;19918;-69
2022/08/29 13:31:10;;;;;;;;;;;;;;;28.03;38.13;101754.00;4447933;32;19929;-69
2022/08/29 13:33:39;;;;;;;;;;;;;;;28.96;36.38;101749.53;4468345;26;19933;-68
2022/08/29 13:36:24;;;;;;;;;;;;;;;29.19;36.08;101755.87;4579315;26;19952;-69
2022/08/29 13:39:09;;;;;;;;;;;;;;;29.30;35.68;101752.84;4464051;32;20000;-68
2022/08/29 13:44:26;;;;;;;;;;;;;;;27.30;44.73;101757.78;5034808;26;19964;-67
2022/08/29 13:46:53;;;;;;;;;;;;;;;26.07;48.90;101753.41;4402754;32;19988;-68
2022/08/29 13:49:21;;;;;;;;;;;;;;;25.16;51.73;101763.53;4400369;32;19931;-68
2022/08/29 13:51:47;;;;;;;;;;;;;;;24.53;53.49;101753.41;4403153;32;20029;-68
2022/08/29 13:54:13;;;;;;;;;;;;;;;24.30;53.09;101742.22;4401912;32;19999;-68
2022/08/29 13:56:39;;;;;;;;;;;;;;;23.97;53.64;101741.91;4404206;32;19977;-68
2022/08/29 13:59:05;;;;;;;;;;;;;;;23.81;53.34;101742.50;4403072;32;19998;-68
2022/08/29 14:01:30;;;;;;;;;;;;;;;24.00;53.40;101741.69;4405304;32;19923;-68
2022/08/29 14:03:56;;;;;;;;;;;;;;;24.11;54.16;101730.28;4401923;32;20002;-68
2022/08/29 14:06:22;;;;;;;;;;;;;;;24.65;52.06;101734.16;4403295;32;20012;-68
2022/08/29 14:08:48;;;;;;;;;;;;;;;24.91;51.69;101732.75;4402821;32;19941;-69
2022/08/29 14:11:14;;;;;;;;;;;;;;;25.66;49.06;101729.19;4405105;32;19931;-68
2022/08/29 14:13:39;;;;;;;;;;;;;;;26.10;47.34;101737.94;4403697;32;19980;-69
2022/08/29 14:16:05;;;;;;;;;;;;;;;26.77;45.42;101732.94;4403976;32;20247;-69
2022/08/29 14:18:31;;;;;;;;;;;;;;;27.35;44.03;101736.72;4400721;32;19931;-69
2022/08/29 14:20:56;;;;;;;;;;;;;;;27.65;42.31;101732.66;4401870;32;20039;-68
2022/08/29 14:23:21;;;;;;;;;;;;;;;27.63;41.96;101729.50;4402953;32;20332;-69
2022/08/29 14:25:47;;;;;;;;;;;;;;;27.63;41.48;101728.69;4403915;32;20006;-69
2022/08/29 14:28:12;;;;;;;;;;;;;;;27.42;40.63;101731.19;4404141;32;20040;-69
2022/08/29 14:30:38;;;;;;;;;;;;;;;27.49;40.13;101727.75;4403959;32;19923;-69
2022/08/29 14:33:04;;;;;;;;;;;;;;;27.78;40.17;101727.03;4401649;32;19945;-69
2022/08/29 14:35:29;;;;;;;;;;;;;;;27.76;39.78;101726.00;4398796;32;19975;-69
2022/08/29 14:37:55;;;;;;;;;;;;;;;27.89;39.33;101726.97;4391376;32;19967;-69
2022/08/29 14:40:21;;;;;;;;;;;;;;;27.83;39.56;101722.53;4389031;32;19977;-69
2022/08/29 14:42:46;;;;;;;;;;;;;;;27.35;39.10;101716.50;4391497;32;19954;-69
2022/08/29 14:45:13;;;;;;;;;;;;;;;26.89;39.69;101717.16;4392026;32;19977;-69
2022/08/29 14:47:39;;;;;;;;;;;;;;;26.50;40.97;101707.75;4392842;32;20020;-69
2022/08/29 14:50:06;;;;;;;;;;;;;;;25.82;44.17;101713.19;4393689;32;19950;-69
2022/08/29 14:52:31;;;;;;;;;;;;;;;25.33;44.23;101709.69;4393022;32;19966;-69
2022/08/29 14:54:56;;;;;;;;;;;;;;;25.12;44.12;101708.25;4392865;32;19998;-69
2022/08/29 14:57:22;;;;;;;;;;;;;;;25.04;44.37;101712.13;4394950;32;19923;-68
2022/08/29 14:59:49;;;;;;;;;;;;;;;25.19;43.83;101710.63;4392606;32;20197;-68
2022/08/29 15:02:16;;;;;;;;;;;;;;;25.03;44.52;101708.47;4390424;32;19945;-69
2022/08/29 15:04:42;;;;;;;;;;;;;;;25.09;43.99;101711.37;4391019;32;19978;-69
2022/08/29 15:07:10;;;;;;;;;;;;;;;25.01;44.30;101702.41;4391993;32;20002;-69
2022/08/29 15:09:36;;;;;;;;;;;;;;;25.15;44.26;101698.56;4391628;32;20005;-68
2022/08/29 15:12:02;;;;;;;;;;;;;;;25.22;44.05;101698.06;4407347;27;19975;-69
2022/08/29 15:14:28;;;;;;;;;;;;;;;25.33;43.33;101692.38;4394443;32;20184;-69
2022/08/29 15:16:54;;;;;;;;;;;;;;;25.63;42.63;101697.69;4393854;32;19970;-69
2022/08/29 15:19:20;;;;;;;;;;;;;;;25.82;41.74;101693.00;4390487;32;20002;-69
2022/08/29 15:21:46;;;;;;;;;;;;;;;26.19;41.31;101687.81;4390118;32;19931;-68
2022/08/29 15:24:11;;;;;;;;;;;;;;;26.74;40.41;101700.12;4391166;32;19989;-69
2022/08/29 15:26:37;;;;;;;;;;;;;;;27.05;39.27;101701.88;4392220;32;19923;-68
2022/08/29 15:29:02;;;;;;;;;;;;;;;27.39;38.58;101694.66;4392583;32;19981;-69
2022/08/29 15:31:29;;;;;;;;;;;;;;;27.69;37.94;101695.53;4391552;32;19945;-69
2022/08/29 15:33:55;;;;;;;;;;;;;;;27.84;37.18;101693.06;4391851;32;19947;-69
2022/08/29 15:36:21;;;;;;;;;;;;;;;27.66;37.08;101705.28;4574268;27;20110;-68
2022/08/29 15:38:46;;;;;;;;;;;;;;;27.32;37.82;101703.09;4476207;26;19998;-68
2022/08/29 15:41:13;;;;;;;;;;;;;;;26.68;38.81;101701.44;4391317;32;19971;-68
2022/08/29 15:43:38;;;;;;;;;;;;;;;26.18;40.04;101703.56;4392525;32;19996;-69
2022/08/29 15:46:05;;;;;;;;;;;;;;;25.56;41.53;101698.22;4392230;32;19970;-68
2022/08/29 15:48:31;;;;;;;;;;;;;;;24.98;42.79;101697.69;4458491;27;19923;-68
2022/08/29 15:50:56;;;;;;;;;;;;;;;24.55;43.74;101696.12;4388872;32;19959;-68
2022/08/29 15:53:22;;;;;;;;;;;;;;;24.60;43.86;101700.31;4438773;27;19954;-68
2022/08/29 15:55:48;;;;;;;;;;;;;;;24.39;44.23;101699.66;4394616;32;20002;-68
2022/08/29 15:58:13;;;;;;;;;;;;;;;24.14;46.51;101696.84;4392315;32;20020;-68
2022/08/29 16:00:42;;;;;;;;;;;;;;;23.90;46.78;101705.72;4391320;32;19969;-68
2022/08/29 16:03:09;;;;;;;;;;;;;;;23.76;45.80;101697.22;4388481;32;19981;-68
2022/08/29 16:05:35;;;;;;;;;;;;;;;23.67;45.47;101683.03;4390443;32;19935;-68
2022/08/29 16:08:01;;;;;;;;;;;;;;;23.86;45.07;101690.81;4391007;32;19935;-68
2022/08/29 16:10:26;;;;;;;;;;;;;;;23.84;44.93;101684.75;4393937;32;19996;-68
2022/08/29 16:12:52;;;;;;;;;;;;;;;23.88;44.70;101693.97;4392341;32;20161;-68
2022/08/29 16:15:18;;;;;;;;;;;;;;;23.99;44.34;101690.44;4722458;26;19930;-68
2022/08/29 16:17:43;;;;;;;;;;;;;;;23.80;45.12;101689.19;4391588;32;20032;-68
2022/08/29 16:20:10;;;;;;;;;;;;;;;23.90;44.79;101685.59;4391099;32;20002;-68
2022/08/29 16:22:37;;;;;;;;;;;;;;;23.91;44.68;101686.41;4393774;32;19964;-68
2022/08/29 16:25:03;;;;;;;;;;;;;;;24.02;44.66;101695.94;4393642;32;19922;-68
2022/08/29 16:27:29;;;;;;;;;;;;;;;24.05;44.53;101694.94;4524703;27;19979;-68
2022/08/29 16:29:56;;;;;;;;;;;;;;;24.43;43.57;101688.72;4389420;32;19942;-69
2022/08/29 16:35:05;;;;;;;;;;;;;;;24.77;43.11;101695.50;4371755;32;20893;-68
2022/08/29 16:37:32;;;;;;;;;;;;;;;24.90;42.87;101695.81;4376868;32;19979;-68
2022/08/29 16:39:57;;;;;;;;;;;;;;;24.48;43.34;101696.59;4373766;32;19932;-69
2022/08/29 16:42:23;;;;;;;;;;;;;;;24.21;44.02;101696.38;4375649;32;19965;-68
2022/08/29 16:47:35;;;;;;;;;;;;;;;23.87;44.55;101691.59;4389178;32;19978;-69
2022/08/29 16:50:02;;;;;;;;;;;;;;;23.61;44.92;101690.81;4350523;32;20323;-69
2022/08/29 16:52:28;;;;;;;;;;;;;;;23.63;44.78;101688.22;4352643;32;20271;-68
2022/08/29 16:54:53;;;;;;;;;;;;;;;23.51;45.05;101693.84;4351820;32;20024;-68
2022/08/29 16:57:19;;;;;;;;;;;;;;;23.61;44.84;101691.59;4351006;32;20038;-68
2022/08/29 16:59:48;;;;;;;;;;;;;;;23.58;45.13;101691.81;4351576;32;19977;-69
2022/08/29 17:02:14;;;;;;;;;;;;;;;23.59;45.12;101690.53;4352693;32;19986;-69
2022/08/29 17:04:41;;;;;;;;;;;;;;;23.56;45.16;101688.69;4351794;32;19994;-69
2022/08/29 17:07:07;;;;;;;;;;;;;;;23.53;45.13;101685.50;4354779;32;19970;-69
2022/08/29 17:16:53;;;;;;;;;;;;;;;23.38;44.67;101684.03;4352963;32;20169;-69
2022/08/29 17:19:19;;;;;;;;;;;;;;;23.30;44.61;101692.31;4349567;32;20388;-69
2022/08/29 17:21:46;;;;;;;;;;;;;;;23.31;44.65;101696.75;4352901;32;20348;-69
2022/08/29 17:24:12;;;;;;;;;;;;;;;23.20;44.83;101701.53;4352967;32;20349;-69
2022/08/29 17:26:39;;;;;;;;;;;;;;;23.14;44.95;101704.31;4354633;32;19997;-69
2022/08/29 17:29:05;;;;;;;;;;;;;;;23.09;45.08;101696.44;4350355;32;20057;-69
2022/08/29 17:31:31;;;;;;;;;;;;;;;23.06;45.05;101690.91;4352207;32;20005;-69
2022/08/29 17:33:57;;;;;;;;;;;;;;;23.12;45.05;101695.44;4353505;32;19993;-69
2022/08/29 17:36:23;;;;;;;;;;;;;;;23.05;45.31;101703.69;4350879;32;20011;-69
2022/08/29 17:38:48;;;;;;;;;;;;;;;23.12;45.33;101700.38;4353306;32;19966;-69
2022/08/29 17:41:17;;;;;;;;;;;;;;;22.98;45.73;101695.53;4350363;32;20247;-69
2022/08/29 17:43:43;;;;;;;;;;;;;;;22.96;45.73;101695.22;4352320;32;19998;-69
2022/08/29 17:46:09;;;;;;;;;;;;;;;22.66;45.93;101688.00;4350762;32;19973;-69
2022/08/29 17:48:35;;;;;;;;;;;;;;;22.43;46.57;101698.31;4352225;32;19955;-69
2022/08/29 17:51:01;;;;;;;;;;;;;;;22.39;46.68;101694.09;4348920;32;20040;-69
2022/08/29 17:53:26;;;;;;;;;;;;;;;22.31;46.94;101705.19;4353972;32;20421;-69
2022/08/29 17:55:53;;;;;;;;;;;;;;;22.31;46.81;101704.41;4349910;32;20804;-69
2022/08/29 17:58:19;;;;;;;;;;;;;;;22.27;47.10;101710.31;4350111;32;20152;-69
2022/08/29 18:00:45;;;;;;;;;;;;;;;22.29;47.05;101712.69;4351879;32;20005;-69
2022/08/29 18:03:11;;;;;;;;;;;;;;;22.13;47.32;101707.47;4353539;32;19959;-69
2022/08/29 18:05:40;;;;;;;;;;;;;;;21.96;47.79;101715.78;4354172;32;20032;-69
2022/08/29 18:08:06;;;;;;;;;;;;;;;21.98;47.66;101709.56;4350663;32;19994;-69
2022/08/29 18:10:32;;;;;;;;;;;;;;;22.01;47.61;101715.09;4348475;32;20002;-69
2022/08/29 18:12:57;;;;;;;;;;;;;;;21.97;47.68;101725.19;4355628;32;19967;-68
2022/08/29 18:15:23;;;;;;;;;;;;;;;21.90;47.92;101714.91;4369553;32;19994;-68
2022/08/29 18:17:50;;;;;;;;;;;;;;;21.95;47.97;101722.81;4352784;32;20004;-68
2022/08/29 18:20:18;;;;;;;;;;;;;;;21.84;48.35;101718.97;4353193;32;19966;-69
2022/08/29 18:22:45;;;;;;;;;;;;;;;21.76;48.75;101714.91;4356204;32;20379;-68
2022/08/29 18:25:10;;;;;;;;;;;;;;;21.73;48.98;101718.72;4352602;32;20629;-68
2022/08/29 18:27:36;;;;;;;;;;;;;;;21.79;48.95;101717.59;4355068;32;19996;-68
2022/08/29 18:30:02;;;;;;;;;;;;;;;21.77;49.11;101719.34;4357695;32;19970;-68
2022/08/29 18:32:28;;;;;;;;;;;;;;;21.68;49.42;101720.19;4353355;32;19955;-68
2022/08/29 18:34:54;;;;;;;;;;;;;;;21.69;49.21;101722.56;4355835;32;20038;-68
2022/08/29 18:37:20;;;;;;;;;;;;;;;21.58;49.37;101722.38;4356199;32;20380;-68
2022/08/29 18:39:45;;;;;;;;;;;;;;;21.48;49.69;101722.94;4355624;32;19959;-68
2022/08/29 18:42:12;;;;;;;;;;;;;;;21.43;49.72;101721.53;4350438;32;20358;-68
2022/08/29 18:44:37;;;;;;;;;;;;;;;21.38;49.73;101718.53;4355294;32;20038;-68
2022/08/29 18:47:03;;;;;;;;;;;;;;;21.44;49.76;101717.38;4352609;32;20404;-68
2022/08/29 18:52:14;;;;;;;;;;;;;;;21.39;49.59;101714.41;4355386;32;20329;-68
2022/08/29 18:54:40;;;;;;;;;;;;;;;21.31;49.72;101734.06;4355360;32;19988;-68
2022/08/29 18:57:07;;;;;;;;;;;;;;;21.31;49.80;101724.66;4354254;32;20038;-68
2022/08/29 18:59:34;;;;;;;;;;;;;;;21.33;49.87;101722.88;4352373;32;20371;-68
2022/08/29 19:01:59;;;;;;;;;;;;;;;21.30;50.11;101726.72;4353305;32;19996;-68
2022/08/29 19:04:25;;;;;;;;;;;;;;;21.30;50.10;101725.94;4352415;32;20426;-68
2022/08/29 19:06:50;;;;;;;;;;;;;;;21.24;50.11;101720.12;4353787;32;19961;-69
2022/08/29 19:09:16;;;;;;;;;;;;;;;21.28;50.28;101725.63;4355741;32;20015;-69
2022/08/29 19:11:41;;;;;;;;;;;;;;;21.28;50.28;101722.78;4354174;32;20036;-69
2022/08/29 19:14:06;;;;;;;;;;;;;;;21.20;50.21;101733.03;4355087;32;19962;-69
2022/08/29 19:16:32;;;;;;;;;;;;;;;21.17;50.41;101729.06;4357331;32;19998;-69
2022/08/29 19:18:58;;;;;;;;;;;;;;;21.21;50.41;101734.59;4353346;32;19993;-69
2022/08/29 19:21:24;;;;;;;;;;;;;;;21.23;50.53;101734.91;4349235;32;19956;-69
2022/08/29 19:23:51;;;;;;;;;;;;;;;21.29;50.09;101747.25;4359040;32;20036;-69
2022/08/29 19:26:20;;;;;;;;;;;;;;;21.25;49.92;101741.72;4353103;32;19963;-68
2022/08/29 19:28:46;;;;;;;;;;;;;;;21.33;49.90;101748.66;4350421;32;20304;-69
2022/08/29 19:31:12;;;;;;;;;;;;;;;21.30;49.94;101752.50;4351985;32;19970;-69
2022/08/29 19:33:38;;;;;;;;;;;;;;;21.26;49.74;101751.91;4353827;32;20450;-68
2022/08/29 19:36:04;;;;;;;;;;;;;;;21.26;49.77;101762.56;4352877;32;19988;-68
2022/08/29 19:38:30;;;;;;;;;;;;;;;21.30;49.69;101760.31;4352880;32;19982;-69
2022/08/29 19:40:56;;;;;;;;;;;;;;;21.29;49.63;101764.44;4352196;32;20619;-69
2022/08/29 19:43:24;;;;;;;;;;;;;;;21.24;49.92;101759.41;4354137;32;20353;-69
2022/08/29 19:45:50;;;;;;;;;;;;;;;21.10;50.22;101768.72;4352803;32;20018;-69
2022/08/29 19:48:16;;;;;;;;;;;;;;;21.22;49.86;101765.63;4350936;32;19959;-69
2022/08/29 19:50:43;;;;;;;;;;;;;;;21.18;50.05;101765.03;4351963;32;20414;-69
2022/08/29 19:53:10;;;;;;;;;;;;;;;20.93;50.65;101764.66;4352099;32;19986;-68
2022/08/29 19:55:36;;;;;;;;;;;;;;;21.07;50.36;101767.62;4354937;32;20037;-68
2022/08/29 19:58:02;;;;;;;;;;;;;;;21.05;50.22;101763.66;4353241;32;20036;-69
2022/08/29 20:00:27;;;;;;;;;;;;;;;20.99;50.28;101772.09;4352730;32;20412;-69
2022/08/29 20:02:53;;;;;;;;;;;;;;;21.02;50.27;101776.88;4355346;32;20399;-69
2022/08/29 20:05:19;;;;;;;;;;;;;;;20.95;49.71;101771.50;4353505;32;19959;-68
2022/08/29 20:07:44;;;;;;;;;;;;;;;20.93;49.79;101767.53;4351294;32;20291;-69
2022/08/29 20:10:20;;;;;;;;;;;;;;;20.86;49.93;101765.81;4355073;32;20446;-68